Time;durP1;ratioP1;P1;durP2;ratioP2;P2;SDS_P1;SDS_P2;PMS_P1;PMS_P2;Temp;Humidity;BMP_temperature;BMP_pressure;BME280_temperature;BME280_humidity;BME280_pressure;Samples;Min_cycle;Max_cycle;Signal;HPM_P1;HPM_P2
2022/11/17 00:01:05;;;;;;;4.60;3.37;;;4.50;99.90;;;;;;5058308;28;20231;-76
2022/11/17 00:03:54;;;;;;;4.80;3.50;;;4.40;99.90;;;;;;5070043;28;20238;-76
2022/11/17 00:06:43;;;;;;;4.23;3.60;;;4.40;99.90;;;;;;5066236;28;20233;-76
2022/11/17 00:09:31;;;;;;;4.77;3.70;;;4.40;99.90;;;;;;5082327;28;20646;-76
2022/11/17 00:15:27;;;;;;;4.53;3.40;;;4.40;99.90;;;;;;5083837;28;20216;-77
2022/11/17 00:21:25;;;;;;;4.37;3.40;;;4.60;99.90;;;;;;5080222;28;20219;-76
2022/11/17 00:24:16;;;;;;;4.03;3.20;;;4.40;99.90;;;;;;5060938;28;20320;-77
2022/11/17 00:27:05;;;;;;;4.93;3.40;;;4.30;99.90;;;;;;5067522;28;20724;-77
2022/11/17 00:29:55;;;;;;;3.90;3.10;;;4.40;99.90;;;;;;5083397;28;20215;-77
2022/11/17 00:35:55;;;;;;;4.17;3.23;;;4.40;99.90;;;;;;4999377;28;20212;-76
2022/11/17 00:38:43;;;;;;;3.17;2.87;;;4.50;99.90;;;;;;5081483;28;20300;-76
2022/11/17 00:41:32;;;;;;;4.67;3.20;;;4.50;99.90;;;;;;5062180;28;20228;-75
2022/11/17 00:44:21;;;;;;;3.30;2.87;;;4.50;99.90;;;;;;5064176;28;20679;-77
2022/11/17 00:47:11;;;;;;;3.57;2.83;;;4.40;99.90;;;;;;5066750;28;20220;-78
2022/11/17 00:49:59;;;;;;;3.30;2.70;;;4.30;99.90;;;;;;5067919;28;20230;-77
2022/11/17 00:52:48;;;;;;;4.10;3.33;;;4.20;99.90;;;;;;5069417;28;20219;-78
2022/11/17 00:55:36;;;;;;;3.37;2.60;;;4.20;99.90;;;;;;5066250;28;20239;-76
2022/11/17 00:58:25;;;;;;;2.83;2.57;;;4.20;99.90;;;;;;5082509;28;20207;-77
2022/11/17 01:01:14;;;;;;;3.47;2.63;;;4.00;99.90;;;;;;5065603;28;20242;-76
2022/11/17 01:04:04;;;;;;;3.67;2.77;;;3.90;99.90;;;;;;5068236;28;20318;-77
2022/11/17 01:06:53;;;;;;;3.03;2.57;;;4.00;99.90;;;;;;5079686;28;20223;-79
2022/11/17 01:09:45;;;;;;;3.93;2.77;;;4.00;99.90;;;;;;5080650;28;20505;-76
2022/11/17 01:12:34;;;;;;;4.77;2.93;;;3.90;99.90;;;;;;5065192;28;20227;-75
2022/11/17 01:15:22;;;;;;;3.63;2.73;;;3.90;99.90;;;;;;5082005;28;20219;-75
2022/11/17 01:18:11;;;;;;;3.50;2.60;;;4.00;99.90;;;;;;5094553;28;20212;-74
2022/11/17 01:21:11;;;;;;;3.83;2.90;;;4.10;99.90;;;;;;5092510;28;20245;-75
2022/11/17 01:24:01;;;;;;;3.23;2.93;;;4.20;99.90;;;;;;5082347;28;20212;-76
2022/11/17 01:26:50;;;;;;;3.80;2.93;;;4.10;99.90;;;;;;5079775;28;20235;-76
2022/11/17 01:29:39;;;;;;;3.37;2.60;;;3.90;99.90;;;;;;5065834;28;20255;-76
2022/11/17 01:32:27;;;;;;;3.30;2.50;;;4.00;99.90;;;;;;5095114;28;20219;-75
2022/11/17 01:35:16;;;;;;;3.27;2.97;;;3.80;99.90;;;;;;5070681;28;20735;-75
2022/11/17 01:38:06;;;;;;;4.53;2.80;;;3.90;99.90;;;;;;5049675;28;20232;-75
2022/11/17 01:40:57;;;;;;;3.40;2.70;;;3.90;99.90;;;;;;5061376;28;20704;-75
2022/11/17 01:43:48;;;;;;;4.90;3.27;;;3.60;99.90;;;;;;5067482;28;20220;-76
2022/11/17 01:46:38;;;;;;;3.93;3.13;;;3.70;99.90;;;;;;5066436;28;20219;-76
2022/11/17 01:49:28;;;;;;;2.97;2.70;;;3.80;99.90;;;;;;5081035;28;20257;-76
2022/11/17 01:52:17;;;;;;;4.63;3.37;;;3.70;99.90;;;;;;5067348;28;20219;-76
2022/11/17 01:55:09;;;;;;;5.53;3.20;;;3.60;99.90;;;;;;5081018;28;20572;-77
2022/11/17 01:58:02;;;;;;;4.57;3.10;;;3.60;99.90;;;;;;5064086;28;20974;-77
2022/11/17 02:00:51;;;;;;;3.77;3.20;;;3.70;99.90;;;;;;5066935;28;20606;-77
2022/11/17 02:03:40;;;;;;;3.63;2.90;;;3.70;99.90;;;;;;5066535;28;21412;-76
2022/11/17 02:06:32;;;;;;;4.10;3.30;;;3.70;99.90;;;;;;5067852;28;20308;-77
2022/11/17 02:09:22;;;;;;;3.70;3.23;;;3.60;99.90;;;;;;5081106;28;20448;-77
2022/11/17 02:12:14;;;;;;;3.87;3.30;;;3.60;99.90;;;;;;5066956;28;20796;-76
2022/11/17 02:15:03;;;;;;;4.17;3.43;;;3.50;99.90;;;;;;5081254;28;20223;-77
2022/11/17 02:17:53;;;;;;;5.23;3.23;;;3.50;99.90;;;;;;5066507;28;20228;-78
2022/11/17 02:20:50;;;;;;;4.10;3.07;;;3.70;99.90;;;;;;5069356;28;20242;-78
2022/11/17 02:24:06;;;;;;;3.77;3.27;;;3.90;99.90;;;;;;5080206;28;20360;-79
2022/11/17 02:27:24;;;;;;;3.53;2.90;;;3.80;99.90;;;;;;5065908;28;20219;-77
2022/11/17 02:30:18;;;;;;;4.93;3.50;;;3.70;99.90;;;;;;5076268;28;20266;-78
2022/11/17 02:33:12;;;;;;;4.70;3.53;;;3.50;99.90;;;;;;5079269;28;20626;-77
2022/11/17 02:36:07;;;;;;;5.03;3.30;;;3.50;99.90;;;;;;5078942;28;20220;-77
2022/11/17 02:39:05;;;;;;;3.97;3.57;;;3.60;99.90;;;;;;5064433;28;20223;-77
2022/11/17 02:41:58;;;;;;;3.30;3.00;;;3.50;99.90;;;;;;5062622;28;20243;-77
2022/11/17 02:44:53;;;;;;;4.27;3.50;;;3.60;99.90;;;;;;5096432;28;20308;-76
2022/11/17 02:47:47;;;;;;;5.10;3.27;;;3.40;99.90;;;;;;5082392;28;20231;-77
2022/11/17 02:50:38;;;;;;;4.03;3.37;;;3.30;99.90;;;;;;5061339;28;20223;-77
2022/11/17 02:53:28;;;;;;;4.30;3.00;;;3.50;99.90;;;;;;5087289;28;20219;-77
2022/11/17 02:56:17;;;;;;;3.80;3.17;;;3.50;99.90;;;;;;5055682;28;20227;-77
2022/11/17 02:59:05;;;;;;;6.63;3.10;;;3.50;99.90;;;;;;5075073;28;20219;-76
2022/11/17 03:02:14;;;;;;;3.77;3.10;;;3.40;99.90;;;;;;5067244;28;20718;-77
2022/11/17 03:05:13;;;;;;;6.23;3.30;;;3.40;99.90;;;;;;5066225;28;20458;-75
2022/11/17 03:08:17;;;;;;;3.60;3.20;;;3.60;99.90;;;;;;5067437;28;20224;-76
2022/11/17 03:11:07;;;;;;;4.73;3.33;;;3.40;99.90;;;;;;5078987;28;20249;-76
2022/11/17 03:14:03;;;;;;;3.77;3.20;;;3.60;99.90;;;;;;5063986;28;20811;-76
2022/11/17 03:16:57;;;;;;;4.20;3.23;;;3.70;99.90;;;;;;5063669;28;20219;-75
2022/11/17 03:19:52;;;;;;;3.53;2.90;;;3.70;99.90;;;;;;5073228;28;20228;-76
2022/11/17 03:22:49;;;;;;;3.57;3.20;;;3.80;99.90;;;;;;5080108;28;20714;-76
2022/11/17 03:25:41;;;;;;;4.63;3.37;;;3.40;99.90;;;;;;5064861;28;20223;-76
2022/11/17 03:28:32;;;;;;;5.33;3.30;;;3.40;99.90;;;;;;5065881;28;20227;-76
2022/11/17 03:31:22;;;;;;;4.13;3.03;;;3.50;99.90;;;;;;5082199;28;20234;-77
2022/11/17 03:34:15;;;;;;;4.17;3.30;;;3.50;99.90;;;;;;5081325;28;20723;-77
2022/11/17 03:37:07;;;;;;;3.90;3.20;;;3.60;99.90;;;;;;5080736;28;20238;-77
2022/11/17 03:40:01;;;;;;;7.23;3.50;;;3.60;99.90;;;;;;5083528;28;20223;-76
2022/11/17 03:42:54;;;;;;;5.57;3.50;;;3.80;99.90;;;;;;5078380;28;20253;-77
2022/11/17 03:45:46;;;;;;;3.17;2.77;;;3.50;99.90;;;;;;5066432;28;20212;-75
2022/11/17 03:48:39;;;;;;;4.70;3.30;;;3.70;99.90;;;;;;5079527;28;20215;-76
2022/11/17 03:51:32;;;;;;;3.30;3.00;;;3.50;99.90;;;;;;5074116;28;20253;-75
2022/11/17 03:54:20;;;;;;;4.07;3.37;;;3.40;99.90;;;;;;5068122;28;20893;-77
2022/11/17 03:57:14;;;;;;;4.57;3.30;;;3.40;99.90;;;;;;5076088;28;20324;-75
2022/11/17 04:00:06;;;;;;;4.07;3.20;;;3.40;99.90;;;;;;5069552;28;20388;-75
2022/11/17 04:03:00;;;;;;;6.23;3.20;;;3.40;99.90;;;;;;5083205;28;20227;-76
2022/11/17 04:05:48;;;;;;;3.67;3.10;;;3.40;99.90;;;;;;5067095;28;20299;-75
2022/11/17 04:08:37;;;;;;;4.03;2.97;;;3.40;99.90;;;;;;5081563;28;20250;-76
2022/11/17 04:17:39;;;;;;;3.67;3.17;;;3.20;99.90;;;;;;5064582;28;20219;-77
2022/11/17 04:20:34;;;;;;;3.40;2.90;;;3.50;99.90;;;;;;5099861;27;20575;-76
2022/11/17 04:23:24;;;;;;;3.83;2.80;;;3.60;99.90;;;;;;5055474;28;20224;-76
2022/11/17 04:29:20;;;;;;;5.23;3.33;;;3.40;99.90;;;;;;5078637;28;20246;-76
2022/11/17 04:32:09;;;;;;;5.43;3.30;;;3.50;99.90;;;;;;5068594;28;20247;-75
2022/11/17 04:34:58;;;;;;;3.63;2.93;;;3.50;99.90;;;;;;5081949;28;20226;-77
2022/11/17 04:37:46;;;;;;;3.73;2.80;;;3.30;99.90;;;;;;5084631;28;20230;-77
2022/11/17 04:41:52;;;;;;;3.73;2.77;;;3.50;99.90;;;;;;5067308;28;20360;-77
2022/11/17 04:43:42;;;;;;;3.53;2.90;;;3.50;99.90;;;;;;5066800;28;20282;-78
2022/11/17 04:46:32;;;;;;;3.27;2.57;;;3.30;99.90;;;;;;5064059;28;20227;-78
2022/11/17 04:49:23;;;;;;;3.27;2.70;;;3.50;99.90;;;;;;5067736;28;20639;-77
2022/11/17 04:52:12;;;;;;;4.07;3.03;;;3.40;99.90;;;;;;5058321;28;20220;-78
2022/11/17 04:55:00;;;;;;;4.03;3.00;;;3.60;99.90;;;;;;5068755;28;20242;-78
2022/11/17 04:57:49;;;;;;;3.63;3.00;;;3.30;99.90;;;;;;5073873;28;20234;-76
2022/11/17 05:00:38;;;;;;;3.03;2.60;;;3.30;99.90;;;;;;5065404;28;20530;-77
2022/11/17 05:03:27;;;;;;;3.63;3.07;;;3.30;99.90;;;;;;5065189;28;20663;-77
2022/11/17 05:06:18;;;;;;;5.57;2.97;;;3.30;99.90;;;;;;5064463;28;20342;-77
2022/11/17 05:09:09;;;;;;;3.33;2.83;;;3.20;99.90;;;;;;5062182;28;20222;-78
2022/11/17 05:15:04;;;;;;;3.73;2.60;;;3.30;99.90;;;;;;5062323;28;20223;-77
2022/11/17 05:17:51;;;;;;;3.50;2.77;;;3.40;99.90;;;;;;5080172;28;20231;-76
2022/11/17 05:20:40;;;;;;;4.20;3.07;;;3.30;99.90;;;;;;5076550;28;20316;-77
2022/11/17 05:26:37;;;;;;;3.93;2.80;;;3.20;99.90;;;;;;5098409;28;20226;-78
2022/11/17 05:29:26;;;;;;;3.33;2.70;;;3.20;99.90;;;;;;5067074;28;20227;-77
2022/11/17 05:32:14;;;;;;;4.00;2.90;;;3.40;99.90;;;;;;5076145;28;20231;-77
2022/11/17 05:35:03;;;;;;;4.30;3.00;;;3.30;99.90;;;;;;5083110;28;20583;-78
2022/11/17 05:37:52;;;;;;;4.60;3.07;;;3.40;99.90;;;;;;5055396;28;20220;-77
2022/11/17 05:40:42;;;;;;;4.77;3.13;;;3.40;99.90;;;;;;5061062;28;20223;-77
2022/11/17 05:43:30;;;;;;;3.40;2.77;;;3.40;99.90;;;;;;5079209;28;20548;-77
2022/11/17 05:46:20;;;;;;;2.90;2.57;;;3.40;99.90;;;;;;5073421;28;20226;-76
2022/11/17 05:49:08;;;;;;;3.20;2.83;;;3.50;99.90;;;;;;5078184;28;20236;-76
2022/11/17 05:51:57;;;;;;;3.73;2.70;;;3.30;99.90;;;;;;5077701;28;20266;-76
2022/11/17 05:54:46;;;;;;;3.80;2.83;;;3.30;99.90;;;;;;5081770;28;20293;-77
2022/11/17 05:57:36;;;;;;;3.37;2.70;;;3.40;99.90;;;;;;5063437;28;20216;-77
2022/11/17 06:00:25;;;;;;;4.47;3.00;;;3.50;99.90;;;;;;5063889;28;21737;-77
2022/11/17 06:03:16;;;;;;;4.00;2.90;;;3.50;99.90;;;;;;5080323;28;20240;-76
2022/11/17 06:06:05;;;;;;;3.63;2.80;;;3.40;99.90;;;;;;5076095;28;20223;-76
2022/11/17 06:08:54;;;;;;;4.13;2.90;;;3.50;99.90;;;;;;5065949;28;20215;-77
2022/11/17 06:11:43;;;;;;;3.13;2.63;;;3.40;99.90;;;;;;5062311;28;20775;-76
2022/11/17 06:14:33;;;;;;;4.27;2.97;;;3.60;99.90;;;;;;5076324;28;20227;-76
2022/11/17 06:17:24;;;;;;;3.53;2.93;;;3.40;99.90;;;;;;5059595;28;20216;-77
2022/11/17 06:20:18;;;;;;;3.33;2.60;;;3.20;99.90;;;;;;5079480;28;20216;-76
2022/11/17 06:23:08;;;;;;;3.53;2.87;;;3.30;99.90;;;;;;5061274;28;20704;-77
2022/11/17 06:25:58;;;;;;;3.60;2.80;;;3.30;99.90;;;;;;5060399;28;20224;-78
2022/11/17 06:28:50;;;;;;;3.80;2.97;;;3.30;99.90;;;;;;5064993;28;20223;-74
2022/11/17 06:31:41;;;;;;;3.37;2.60;;;3.30;99.90;;;;;;5046241;28;20236;-76
2022/11/17 06:34:33;;;;;;;5.60;2.83;;;3.40;99.90;;;;;;5061311;28;20252;-76
2022/11/17 06:37:21;;;;;;;3.73;2.83;;;3.30;99.90;;;;;;5073882;28;20299;-76
2022/11/17 06:40:12;;;;;;;5.43;3.07;;;3.20;99.90;;;;;;5059106;28;20300;-76
2022/11/17 06:43:07;;;;;;;2.90;2.60;;;3.20;99.90;;;;;;5062441;28;20230;-76
2022/11/17 06:45:55;;;;;;;4.93;2.97;;;3.40;99.90;;;;;;5065894;28;20604;-76
2022/11/17 06:48:45;;;;;;;3.83;2.90;;;3.30;99.90;;;;;;5080654;28;20258;-76
2022/11/17 06:51:34;;;;;;;4.60;3.10;;;3.20;99.90;;;;;;5081364;28;20304;-76
2022/11/17 06:54:27;;;;;;;4.00;3.07;;;3.20;99.90;;;;;;5084627;28;20721;-74
2022/11/17 06:57:15;;;;;;;4.10;2.90;;;3.20;99.90;;;;;;5053051;28;20855;-75
2022/11/17 07:00:05;;;;;;;9.67;5.67;;;3.40;99.90;;;;;;5050187;28;20220;-75
2022/11/17 07:02:59;;;;;;;4.90;3.50;;;3.50;99.90;;;;;;5070527;28;20220;-75
2022/11/17 07:05:50;;;;;;;4.03;3.07;;;3.50;99.90;;;;;;5065846;28;20235;-76
2022/11/17 07:08:39;;;;;;;4.40;3.03;;;3.30;99.90;;;;;;5047345;28;20268;-77
2022/11/17 07:11:27;;;;;;;5.13;3.20;;;3.30;99.90;;;;;;5090756;28;20866;-76
2022/11/17 07:14:16;;;;;;;16.17;3.30;;;3.30;99.90;;;;;;5095470;28;20322;-76
2022/11/17 07:17:04;;;;;;;3.70;3.00;;;3.10;99.90;;;;;;5082392;28;20220;-75
2022/11/17 07:19:53;;;;;;;5.50;3.17;;;3.20;99.90;;;;;;5073892;28;20216;-75
2022/11/17 07:22:44;;;;;;;5.40;3.63;;;3.20;99.90;;;;;;5077800;28;20208;-73
2022/11/17 07:25:32;;;;;;;5.57;3.33;;;3.10;99.90;;;;;;5085528;28;20215;-74
2022/11/17 07:28:21;;;;;;;4.27;3.70;;;3.30;99.90;;;;;;5083811;28;20231;-77
2022/11/17 07:31:09;;;;;;;4.00;3.60;;;3.10;99.90;;;;;;5072174;28;20318;-79
2022/11/17 07:33:58;;;;;;;5.60;3.73;;;2.80;99.90;;;;;;5083372;28;21038;-78
2022/11/17 07:36:47;;;;;;;5.53;3.83;;;2.80;99.90;;;;;;5081974;28;20224;-78
2022/11/17 07:39:37;;;;;;;10.37;5.97;;;3.00;99.90;;;;;;5068628;28;20725;-77
2022/11/17 07:42:25;;;;;;;6.40;4.40;;;3.00;99.90;;;;;;5083622;28;20231;-76
2022/11/17 07:45:14;;;;;;;4.93;4.27;;;2.80;99.90;;;;;;5081600;28;20322;-76
2022/11/17 07:48:05;;;;;;;5.70;4.20;;;2.90;99.90;;;;;;5078100;28;20215;-76
2022/11/17 07:50:57;;;;;;;5.13;4.07;;;3.00;99.90;;;;;;5080087;28;20219;-73
2022/11/17 07:53:46;;;;;;;5.27;4.30;;;3.00;99.90;;;;;;5097930;28;20239;-73
2022/11/17 07:56:36;;;;;;;6.63;4.67;;;2.90;99.90;;;;;;5083151;28;20947;-73
2022/11/17 07:59:25;;;;;;;5.40;4.40;;;3.00;99.90;;;;;;5068535;28;20338;-74
2022/11/17 08:02:14;;;;;;;6.03;4.60;;;3.10;99.90;;;;;;5074459;28;20560;-74
2022/11/17 08:05:02;;;;;;;7.73;4.43;;;3.00;99.90;;;;;;5082444;28;20219;-73
2022/11/17 08:07:55;;;;;;;6.27;4.40;;;3.00;99.90;;;;;;5071063;28;20304;-74
2022/11/17 08:10:43;;;;;;;9.30;4.70;;;3.10;99.90;;;;;;5104839;27;20231;-77
2022/11/17 08:13:34;;;;;;;6.10;4.73;;;3.10;99.90;;;;;;5080521;28;20595;-75
2022/11/17 08:16:24;;;;;;;9.33;4.90;;;3.00;99.90;;;;;;5053874;28;20226;-74
2022/11/17 08:19:13;;;;;;;6.00;4.67;;;2.90;99.90;;;;;;5084369;28;20223;-77
2022/11/17 08:22:01;;;;;;;9.00;4.80;;;2.80;99.90;;;;;;5084912;28;20619;-76
2022/11/17 08:24:50;;;;;;;6.47;4.80;;;2.80;99.90;;;;;;5070740;28;20665;-75
2022/11/17 08:27:38;;;;;;;5.80;4.33;;;2.80;99.90;;;;;;5054630;28;20235;-75
2022/11/17 08:30:30;;;;;;;9.67;4.80;;;2.80;99.90;;;;;;5081782;28;20230;-77
2022/11/17 08:33:18;;;;;;;6.37;4.60;;;3.10;99.90;;;;;;5082537;28;20239;-81
2022/11/17 08:36:08;;;;;;;9.37;4.93;;;3.00;99.90;;;;;;5082036;28;21026;-77
2022/11/17 08:38:56;;;;;;;9.07;4.60;;;3.00;99.90;;;;;;5054436;28;20224;-78
2022/11/17 08:41:45;;;;;;;6.23;4.50;;;2.90;99.90;;;;;;5073003;28;20251;-76
2022/11/17 08:44:33;;;;;;;5.30;4.47;;;2.90;99.90;;;;;;5083871;28;20234;-77
2022/11/17 08:47:24;;;;;;;6.53;4.60;;;2.60;99.90;;;;;;5069121;28;20745;-76
2022/11/17 08:50:12;;;;;;;5.80;4.60;;;2.80;99.90;;;;;;5066493;28;20220;-76
2022/11/17 08:53:01;;;;;;;6.77;4.97;;;2.80;99.90;;;;;;5084188;28;20228;-76
2022/11/17 08:55:50;;;;;;;5.40;4.70;;;2.80;99.90;;;;;;5082541;28;20230;-77
2022/11/17 08:58:39;;;;;;;5.70;5.03;;;3.00;99.90;;;;;;5085863;28;20235;-75
2022/11/17 09:01:29;;;;;;;7.90;5.43;;;2.80;99.90;;;;;;5069320;28;20250;-75
2022/11/17 09:04:19;;;;;;;6.53;4.90;;;3.10;99.90;;;;;;5065945;28;21032;-75
2022/11/17 09:07:08;;;;;;;5.60;4.80;;;2.80;99.90;;;;;;5065814;28;20234;-75
2022/11/17 09:09:56;;;;;;;9.27;5.43;;;2.70;99.90;;;;;;5084257;28;20216;-75
2022/11/17 09:12:45;;;;;;;7.50;5.40;;;2.90;99.90;;;;;;5068462;28;20306;-75
2022/11/17 09:15:34;;;;;;;6.13;5.13;;;3.00;99.90;;;;;;5082437;28;20321;-77
2022/11/17 09:18:22;;;;;;;7.47;5.80;;;3.00;99.90;;;;;;5082672;28;20231;-77
2022/11/17 09:21:15;;;;;;;7.97;5.53;;;3.30;99.90;;;;;;5066167;28;20260;-78
2022/11/17 09:24:04;;;;;;;7.33;5.80;;;3.10;99.90;;;;;;5085256;28;20307;-76
2022/11/17 09:26:53;;;;;;;6.57;4.83;;;3.20;99.90;;;;;;5069493;28;20301;-77
2022/11/17 09:29:42;;;;;;;8.00;5.30;;;3.30;99.90;;;;;;5077557;28;20219;-79
2022/11/17 09:32:33;;;;;;;8.40;5.57;;;2.80;99.90;;;;;;5067762;28;20216;-77
2022/11/17 09:35:22;;;;;;;7.87;5.97;;;3.00;99.90;;;;;;5073762;28;20216;-79
2022/11/17 09:38:12;;;;;;;7.87;5.73;;;2.80;99.90;;;;;;5081388;28;20772;-80
2022/11/17 09:41:09;;;;;;;6.87;5.50;;;2.80;99.90;;;;;;5069719;28;20227;-85
2022/11/17 09:44:10;;;;;;;7.07;6.10;;;2.70;99.90;;;;;;5078445;28;20217;-82
2022/11/17 09:47:07;;;;;;;8.67;5.87;;;2.80;99.90;;;;;;5065266;28;20229;-82
2022/11/17 09:50:00;;;;;;;7.80;5.90;;;2.90;99.90;;;;;;5075834;28;20223;-83
2022/11/17 09:52:58;;;;;;;8.37;6.30;;;2.90;99.90;;;;;;5082841;28;20239;-80
2022/11/17 09:55:51;;;;;;;10.83;7.13;;;3.00;99.90;;;;;;5057562;28;20227;-80
2022/11/17 09:58:45;;;;;;;9.13;6.13;;;3.10;99.90;;;;;;5062708;28;20220;-81
2022/11/17 10:01:33;;;;;;;9.60;6.33;;;3.00;99.90;;;;;;5068576;28;20219;-81
2022/11/17 10:04:27;;;;;;;8.37;6.30;;;3.10;99.90;;;;;;5063433;28;20216;-83
2022/11/17 10:07:16;;;;;;;9.53;6.57;;;3.00;99.90;;;;;;5058544;28;20290;-81
2022/11/17 10:10:11;;;;;;;11.63;6.97;;;2.90;99.90;;;;;;5079453;28;20620;-82
2022/11/17 10:13:04;;;;;;;13.00;5.97;;;2.90;99.90;;;;;;5071534;28;20243;-85
2022/11/17 10:15:57;;;;;;;9.63;6.80;;;2.90;99.90;;;;;;5069530;28;20564;-83
2022/11/17 10:18:46;;;;;;;7.93;6.53;;;2.90;99.90;;;;;;5085148;28;20265;-84
2022/11/17 10:21:34;;;;;;;9.33;6.70;;;2.80;99.90;;;;;;5065822;28;20308;-82
2022/11/17 10:24:37;;;;;;;10.23;7.10;;;2.80;99.90;;;;;;5072565;28;20699;-83
2022/11/17 10:27:28;;;;;;;12.27;6.73;;;2.60;99.90;;;;;;5069589;28;20239;-82
2022/11/17 10:30:23;;;;;;;17.33;8.00;;;2.60;99.90;;;;;;5086203;28;20223;-83
2022/11/17 10:33:14;;;;;;;10.17;7.00;;;2.40;99.90;;;;;;5082427;28;20215;-78
2022/11/17 10:36:05;;;;;;;9.27;7.17;;;2.50;99.90;;;;;;5079713;28;20261;-78
2022/11/17 10:38:55;;;;;;;13.57;7.47;;;2.60;99.90;;;;;;5079334;28;20220;-78
2022/11/17 10:41:47;;;;;;;10.17;7.03;;;2.80;99.90;;;;;;5082643;28;20223;-78
2022/11/17 10:44:40;;;;;;;9.13;7.20;;;2.80;99.90;;;;;;5080324;28;20215;-78
2022/11/17 10:47:39;;;;;;;12.00;7.20;;;3.00;99.90;;;;;;5066506;28;20223;-78
2022/11/17 10:50:28;;;;;;;11.03;7.50;;;3.10;99.90;;;;;;5082618;28;20771;-77
2022/11/17 10:53:26;;;;;;;12.27;7.33;;;3.00;99.90;;;;;;5073360;28;20444;-78
2022/11/17 10:56:18;;;;;;;10.40;7.23;;;3.20;99.90;;;;;;5058281;28;20262;-78
2022/11/17 10:59:16;;;;;;;10.27;8.00;;;3.20;99.90;;;;;;5063907;28;20223;-76
2022/11/17 11:02:28;;;;;;;10.07;7.47;;;2.80;99.90;;;;;;5085125;28;20223;-77
2022/11/17 11:05:20;;;;;;;10.70;8.13;;;2.90;99.90;;;;;;5078272;28;20268;-77
2022/11/17 11:08:18;;;;;;;10.87;7.90;;;2.90;99.90;;;;;;5081682;28;20226;-82
2022/11/17 11:11:12;;;;;;;10.50;7.40;;;3.00;99.90;;;;;;5057453;28;20227;-77
2022/11/17 11:14:10;;;;;;;13.57;7.40;;;2.90;99.90;;;;;;5062929;28;20231;-78
2022/11/17 11:16:59;;;;;;;10.70;7.10;;;3.30;99.90;;;;;;5085210;28;20242;-78
2022/11/17 11:19:51;;;;;;;11.23;7.43;;;3.00;99.90;;;;;;5080345;28;20215;-78
2022/11/17 11:22:51;;;;;;;8.60;6.80;;;2.90;99.90;;;;;;5079598;28;20223;-77
2022/11/17 11:25:48;;;;;;;12.33;7.87;;;2.90;99.90;;;;;;5052670;28;20366;-78
2022/11/17 11:28:46;;;;;;;10.30;7.43;;;3.00;99.90;;;;;;5077511;28;20220;-78
2022/11/17 11:31:52;;;;;;;11.20;7.73;;;3.00;99.90;;;;;;5062663;28;20441;-77
2022/11/17 11:34:55;;;;;;;9.60;7.20;;;3.00;99.90;;;;;;5088991;28;20623;-78
2022/11/17 11:37:55;;;;;;;9.63;7.00;;;3.10;99.90;;;;;;5074393;28;20226;-77
2022/11/17 11:40:50;;;;;;;8.17;6.77;;;3.30;99.90;;;;;;5084029;28;20227;-77
2022/11/17 11:43:52;;;;;;;10.43;6.80;;;3.30;99.90;;;;;;5085121;28;20294;-78
2022/11/17 11:46:51;;;;;;;10.67;7.10;;;3.30;99.90;;;;;;5067979;28;20310;-78
2022/11/17 11:49:45;;;;;;;9.77;7.17;;;3.40;99.90;;;;;;5083792;28;20238;-77
2022/11/17 11:52:40;;;;;;;9.00;7.00;;;3.50;99.90;;;;;;5070417;28;20220;-77
2022/11/17 11:55:34;;;;;;;11.50;6.97;;;3.80;99.90;;;;;;5069833;28;20243;-76
2022/11/17 11:58:24;;;;;;;8.67;6.60;;;3.60;99.90;;;;;;5072936;28;20234;-75
2022/11/17 12:01:16;;;;;;;10.93;7.17;;;3.40;99.90;;;;;;5069276;28;20305;-76
2022/11/17 12:04:19;;;;;;;9.80;6.40;;;3.20;99.90;;;;;;5080085;28;20226;-77
2022/11/17 12:07:15;;;;;;;8.33;6.07;;;3.50;99.90;;;;;;5065150;28;20218;-77
2022/11/17 12:10:11;;;;;;;9.23;6.40;;;3.80;99.90;;;;;;5067204;28;20238;-76
2022/11/17 12:13:03;;;;;;;7.50;6.20;;;3.70;99.90;;;;;;5062328;28;20240;-77
2022/11/17 12:16:12;;;;;;;7.43;6.27;;;3.50;99.90;;;;;;5065963;28;20657;-77
2022/11/17 12:19:00;;;;;;;11.13;6.50;;;3.20;99.90;;;;;;5090297;28;20219;-78
2022/11/17 12:21:54;;;;;;;10.03;6.77;;;3.20;99.90;;;;;;5084347;28;20223;-78
2022/11/17 12:24:43;;;;;;;8.00;6.10;;;3.30;99.90;;;;;;5069956;28;20793;-79
2022/11/17 12:27:41;;;;;;;7.20;5.87;;;3.20;99.90;;;;;;5071885;28;20282;-78
2022/11/17 15:49:45;;;;;;;15.17;8.73;;;2.50;99.90;;;;;;5070893;27;20591;-78
2022/11/17 15:52:34;;;;;;;12.30;8.07;;;2.40;99.90;;;;;;5099387;27;20280;-78
2022/11/17 15:55:43;;;;;;;15.60;8.60;;;2.50;99.90;;;;;;5096247;28;20218;-78
2022/11/17 15:58:32;;;;;;;17.70;8.93;;;2.40;99.90;;;;;;5094336;27;20225;-77
2022/11/17 16:01:26;;;;;;;13.93;8.67;;;2.40;99.90;;;;;;5109858;27;20222;-78
2022/11/17 16:04:15;;;;;;;16.47;9.17;;;2.30;99.90;;;;;;5092789;28;20226;-76
2022/11/17 16:07:06;;;;;;;18.13;9.77;;;2.50;99.90;;;;;;5094018;27;20256;-75
2022/11/17 16:09:54;;;;;;;17.10;10.07;;;2.60;99.90;;;;;;5114812;27;20270;-76
2022/11/17 16:12:43;;;;;;;17.70;11.23;;;2.80;99.90;;;;;;5099679;28;20821;-77
2022/11/17 16:15:31;;;;;;;17.60;10.67;;;2.90;99.90;;;;;;5098453;27;20227;-76
2022/11/17 16:18:20;;;;;;;18.30;10.70;;;2.90;99.90;;;;;;5104830;28;20227;-77
2022/11/17 16:21:11;;;;;;;18.40;11.27;;;3.00;99.90;;;;;;5107258;27;20229;-77
2022/11/17 16:24:02;;;;;;;16.53;9.90;;;2.90;99.90;;;;;;5115599;27;20218;-76
2022/11/17 16:26:50;;;;;;;17.53;10.50;;;2.90;99.90;;;;;;5115085;27;20217;-78
2022/11/17 16:29:39;;;;;;;15.63;9.77;;;2.80;99.90;;;;;;5105630;27;20308;-77
2022/11/17 16:32:28;;;;;;;17.87;9.33;;;2.70;99.90;;;;;;5086264;28;20984;-74
2022/11/17 16:35:17;;;;;;;17.47;9.33;;;2.70;99.90;;;;;;5105219;27;20229;-77
2022/11/17 16:38:06;;;;;;;14.00;9.13;;;2.70;99.90;;;;;;5095102;27;20216;-78
2022/11/17 16:40:59;;;;;;;21.57;11.53;;;2.60;99.90;;;;;;5127424;27;20221;-76
2022/11/17 16:43:48;;;;;;;15.80;10.10;;;2.60;99.90;;;;;;5111452;27;20226;-77
2022/11/17 16:46:37;;;;;;;14.43;9.17;;;2.70;99.90;;;;;;5122127;27;20228;-76
2022/11/17 16:49:26;;;;;;;18.50;9.53;;;2.70;99.90;;;;;;5063741;28;20227;-76
2022/11/17 16:52:14;;;;;;;13.73;9.23;;;2.60;99.90;;;;;;5075037;28;20607;-78
2022/11/17 16:55:03;;;;;;;16.20;9.93;;;2.60;99.90;;;;;;5072126;28;20212;-76
2022/11/17 16:57:54;;;;;;;15.63;9.50;;;2.90;99.90;;;;;;5078506;28;20223;-76
2022/11/17 17:00:42;;;;;;;16.70;10.40;;;2.80;99.90;;;;;;5057140;28;20220;-76
2022/11/17 17:03:31;;;;;;;18.83;11.40;;;2.90;99.90;;;;;;5091358;27;20226;-74
2022/11/17 17:06:20;;;;;;;20.03;11.40;;;2.90;99.90;;;;;;5086066;28;20690;-77
2022/11/17 17:09:10;;;;;;;20.87;11.23;;;2.90;99.90;;;;;;5100775;28;20239;-78
2022/11/17 17:11:58;;;;;;;16.27;10.70;;;2.90;99.90;;;;;;5101245;28;20218;-76
2022/11/17 17:14:49;;;;;;;16.17;10.60;;;3.00;99.90;;;;;;5100622;27;20304;-76
2022/11/17 17:17:37;;;;;;;22.87;10.97;;;2.90;99.90;;;;;;5087021;27;20222;-75
2022/11/17 17:20:26;;;;;;;22.77;11.37;;;3.00;99.90;;;;;;5087098;28;20233;-76
2022/11/17 17:23:15;;;;;;;14.40;9.60;;;3.10;99.90;;;;;;5083145;28;20218;-75
2022/11/17 17:26:05;;;;;;;18.23;10.73;;;3.00;99.90;;;;;;5098633;28;20219;-76
2022/11/17 17:28:55;;;;;;;19.03;9.83;;;2.70;99.90;;;;;;5083833;28;20227;-76
2022/11/17 17:31:45;;;;;;;13.93;9.90;;;2.80;99.90;;;;;;5080335;27;20543;-77
2022/11/17 17:34:34;;;;;;;17.10;10.17;;;2.90;99.90;;;;;;5100047;27;20222;-76
2022/11/17 17:37:22;;;;;;;16.93;10.00;;;3.00;99.90;;;;;;5103248;28;20225;-76
2022/11/17 17:40:12;;;;;;;17.77;11.10;;;3.10;99.90;;;;;;5096344;28;20304;-76
2022/11/17 17:43:00;;;;;;;16.53;10.57;;;3.10;99.90;;;;;;5102231;27;20225;-76
2022/11/17 17:45:49;;;;;;;18.90;10.67;;;3.10;99.90;;;;;;5100814;28;20578;-76
2022/11/17 17:48:41;;;;;;;21.27;10.77;;;3.10;99.90;;;;;;5083422;28;20567;-78
2022/11/17 17:51:30;;;;;;;21.13;12.43;;;3.00;99.90;;;;;;5086779;28;20230;-77
2022/11/17 17:54:22;;;;;;;22.43;11.73;;;2.90;99.90;;;;;;5075163;28;20231;-77
2022/11/17 17:57:11;;;;;;;19.63;12.07;;;2.70;99.90;;;;;;5065769;28;20235;-77
2022/11/17 18:00:00;;;;;;;20.33;12.20;;;2.70;99.90;;;;;;5081883;28;20235;-76
2022/11/17 18:02:51;;;;;;;20.90;12.93;;;2.70;99.90;;;;;;5085323;28;20328;-77
2022/11/17 18:05:41;;;;;;;23.07;13.57;;;2.60;99.90;;;;;;5087951;28;20222;-77
2022/11/17 18:08:32;;;;;;;23.47;13.17;;;2.60;99.90;;;;;;5085475;28;20210;-76
2022/11/17 18:11:21;;;;;;;20.33;12.40;;;2.50;99.90;;;;;;5101489;27;20706;-77
2022/11/17 18:14:09;;;;;;;20.40;12.30;;;2.70;99.90;;;;;;5101785;27;20733;-76
2022/11/17 18:16:58;;;;;;;16.97;11.10;;;2.90;99.90;;;;;;5101909;27;20215;-77
2022/11/17 18:19:47;;;;;;;20.40;11.90;;;2.90;99.90;;;;;;5102682;27;20225;-76
2022/11/17 18:22:38;;;;;;;20.63;11.70;;;2.70;99.90;;;;;;5095311;28;20226;-77
2022/11/17 18:25:26;;;;;;;20.47;12.37;;;2.70;99.90;;;;;;5095722;27;20371;-76
2022/11/17 18:28:15;;;;;;;17.73;11.53;;;2.80;99.90;;;;;;5084199;28;20253;-77
2022/11/17 18:31:05;;;;;;;15.83;11.20;;;2.70;99.90;;;;;;5083489;27;20228;-77
2022/11/17 18:33:56;;;;;;;21.30;13.50;;;2.60;99.90;;;;;;5099020;27;20586;-77
2022/11/17 18:36:45;;;;;;;19.60;11.87;;;2.80;99.90;;;;;;5097974;27;20737;-76
2022/11/17 18:39:35;;;;;;;20.37;11.83;;;2.70;99.90;;;;;;5086421;28;20225;-75
2022/11/17 18:42:23;;;;;;;16.73;11.17;;;2.60;99.90;;;;;;5103293;27;20229;-74